Create Custom Reports and Graphics: Custom Report

Modesto Jr College

Current Conditions

3/6/21 8:15 AM (-08:00)
Updated Every 15 Minutes
Temp 49.5 °F   2.1
RH 74 %   21
Dew Pt 41.4 °F   4.4
Wind Spd 6.2 mph
Wind Dir NNW | 327 °
Wind Gust 10.7 mph   7.0
Latest Rain 0.00 In
Daily Rain 0.01 In
Daily Min Temp 42.8 °F   8.4
Daily Max Temp 54.9 °F   6.4

Last 24 Hours

Modesto Jr College

15 Minute Data | America/Los_Angeles
as of 3/6/21 8:26 AM PST
Date & Time Temp (°F) RH (%) Dew Pt (°F) Wind Spd (mph) Wind Dir (°) Wind Gust (mph) Latest Rain (In) Daily Rain (In) Daily Min Temp (°F) Daily Max Temp (°F)
3/6/21 - 0815 49.5 74 41.4 6.2 NNW | 327 10.7 0.00 0.01 42.8 54.9
3/6/21 - 0800 48.9 78 42.3 3.4 NW | 324 5.7 0.00 0.01 42.8 54.9
3/6/21 - 0745 46.8 85 42.5 1.9 NNW | 347 4.2 0.00 0.01 42.8 54.9
3/6/21 - 0730 44.9 87 41.4 2.1 NNE | 29 3.3 0.00 0.01 42.8 54.9
3/6/21 - 0715 43.9 89 40.8 2.4 N | 11 3.9 0.00 0.01 42.8 54.9
3/6/21 - 0700 43.4 88 40.2 2.4 NNE | 12 4.8 0.00 0.01 42.8 54.9
3/6/21 - 0645 44.4 86 40.3 2.4 NE | 47 5.5 0.00 0.01 43.4 54.9
3/6/21 - 0630 44.5 86 40.6 3.3 NE | 43 5.7 0.00 0.01 43.4 54.9
3/6/21 - 0615 44.3 88 41.0 3.5 NNE | 20 7.2 0.00 0.01 43.4 54.9
3/6/21 - 0600 43.9 88 40.6 2.4 NE | 41 6.1 0.00 0.01 43.4 54.9
3/6/21 - 0545 44.1 88 40.6 3.4 NNE | 15 6.6 0.00 0.01 43.7 54.9
3/6/21 - 0530 44.5 87 40.9 2.5 NNE | 32 4.4 0.00 0.01 44.1 54.9
3/6/21 - 0515 45.1 86 41.3 2.8 NNW | 332 5.5 0.00 0.01 44.8 54.9
3/6/21 - 0500 45.8 86 41.8 3.7 WNW | 293 6.6 0.00 0.01 45.4 54.9
3/6/21 - 0445 46.3 86 42.2 6.4 WNW | 284 11.4 0.00 0.01 46.0 54.9
3/6/21 - 0430 46.7 85 42.5 6.7 W | 281 13.8 0.00 0.01 46.4 54.9
3/6/21 - 0415 47.0 86 43.0 6.5 WNW | 285 15.1 0.00 0.01 46.4 54.9
3/6/21 - 0400 47.0 87 43.2 7.3 WNW | 297 12.7 0.00 0.01 46.4 54.9
3/6/21 - 0345 46.9 90 44.2 5.4 WNW | 300 11.0 0.00 0.01 46.4 54.9
3/6/21 - 0330 46.7 92 44.6 4.7 NW | 326 7.9 0.00 0.01 46.4 54.9
3/6/21 - 0315 46.6 93 44.7 3.8 NW | 318 7.2 0.00 0.01 46.4 54.9
3/6/21 - 0300 46.6 93 44.7 2.9 NNW | 336 5.7 0.00 0.01 46.5 54.9
3/6/21 - 0245 46.6 93 44.6 2.2 NW | 321 5.7 0.01 0.01 46.5 54.9
3/6/21 - 0230 46.6 92 44.3 2.4 NW | 304 5.9 0.00 0.00 46.5 54.9
3/6/21 - 0215 46.8 90 43.9 5.3 NW | 305 11.6 0.00 0.00 46.5 54.9
3/6/21 - 0200 47.5 86 43.4 7.6 NW | 307 15.6 0.00 0.00 47.0 54.9
3/6/21 - 0145 48.7 82 43.6 8.4 NW | 304 14.9 0.00 0.00 47.9 54.9
3/6/21 - 0130 50.5 79 44.4 11.4 WNW | 284 19.5 0.00 0.00 49.5 54.9
3/6/21 - 0115 52.9 71 43.8 12.3 W | 268 21.7 0.00 0.00 51.2 54.9
3/6/21 - 0100 54.7 63 42.4 6.4 SSE | 168 16.2 0.00 0.00 51.9 54.9
3/6/21 - 0045 53.2 66 42.2 5.0 ESE | 112 9.2 0.00 0.00 51.9 54.6
3/6/21 - 0030 52.8 67 42.2 3.9 E | 88 7.7 0.00 0.00 51.9 54.4
3/6/21 - 0015 54.1 63 42.0 6.7 E | 101 13.2 0.00 0.00 53.4 54.4
3/6/21 - 0000 53.9 64 42.1 6.4 SE | 135 11.4 0.00 0.00 34.4 72.5
3/5/21 - 2345 53.8 65 42.5 6.5 ESE | 122 11.0 0.00 0.00 34.4 72.5
3/5/21 - 2330 53.2 69 43.2 5.1 E | 100 10.3 0.00 0.00 34.4 72.5
3/5/21 - 2315 53.0 66 42.2 6.4 E | 99 13.8 0.00 0.00 34.4 72.5
3/5/21 - 2300 52.5 64 40.7 6.1 E | 99 11.2 0.00 0.00 34.4 72.5
3/5/21 - 2245 50.1 69 40.2 3.7 E | 98 10.3 0.00 0.00 34.4 72.5
3/5/21 - 2230 50.7 69 40.8 1.3 ESE | 123 3.3 0.00 0.00 34.4 72.5
3/5/21 - 2215 50.2 75 42.7 1.7 W | 260 4.2 0.00 0.00 34.4 72.5
3/5/21 - 2200 48.9 79 42.8 2.6 WSW | 238 6.6 0.00 0.00 34.4 72.5
3/5/21 - 2145 49.6 77 42.7 0.1 WSW | 243 1.8 0.00 0.00 34.4 72.5
3/5/21 - 2130 50.9 75 43.2 1.3 SW | 215 4.4 0.00 0.00 34.4 72.5
3/5/21 - 2115 51.5 74 43.5 0.6 NW | 308 2.2 0.00 0.00 34.4 72.5
3/5/21 - 2100 52.6 71 43.6 1.3 W | 276 2.6 0.00 0.00 34.4 72.5
3/5/21 - 2045 53.8 69 43.7 2.2 W | 275 4.6 0.00 0.00 34.4 72.5
3/5/21 - 2030 54.2 67 43.6 3.2 WNW | 288 5.7 0.00 0.00 34.4 72.5
3/5/21 - 2015 54.4 66 43.5 3.9 WNW | 288 6.8 0.00 0.00 34.4 72.5
3/5/21 - 2000 52.4 73 43.9 3.2 WNW | 299 9.4 0.00 0.00 34.4 72.5
3/5/21 - 1945 51.4 78 44.7 0.0 N | 0 0.0 0.00 0.00 34.4 72.5
3/5/21 - 1930 52.4 73 44.2 1.0 WSW | 246 1.8 0.00 0.00 34.4 72.5
3/5/21 - 1915 53.4 72 44.5 0.0 N | 0 0.0 0.00 0.00 34.4 72.5
3/5/21 - 1900 54.7 68 44.3 0.7 W | 281 1.8 0.00 0.00 34.4 72.5
3/5/21 - 1845 56.3 65 44.5 0.2 WNW | 288 1.3 0.00 0.00 34.4 72.5
3/5/21 - 1830 58.3 60 44.7 0.0 N | 0 0.0 0.00 0.00 34.4 72.5
3/5/21 - 1815 60.5 54 44.0 0.0 WSW | 253 0.9 0.00 0.00 34.4 72.5
3/5/21 - 1800 62.8 49 43.3 1.5 W | 259 3.1 0.00 0.00 34.4 72.5
3/5/21 - 1745 64.4 47 43.5 2.6 W | 263 4.6 0.00 0.00 34.4 72.5
3/5/21 - 1730 65.3 46 44.2 2.7 W | 267 4.6 0.00 0.00 34.4 72.5
3/5/21 - 1715 65.9 45 43.8 2.6 W | 263 4.8 0.00 0.00 34.4 72.5
3/5/21 - 1700 66.4 44 44.0 2.9 WSW | 257 5.5 0.00 0.00 34.4 72.5
3/5/21 - 1645 66.8 42 43.3 3.8 W | 275 7.5 0.00 0.00 34.4 72.5
3/5/21 - 1630 67.5 41 43.0 5.0 WNW | 289 7.2 0.00 0.00 34.4 72.5
3/5/21 - 1615 68.3 42 44.4 4.7 W | 262 8.1 0.00 0.00 34.4 72.5
3/5/21 - 1600 68.8 41 44.2 4.8 WSW | 256 7.9 0.00 0.00 34.4 72.5
3/5/21 - 1545 69.7 37 42.4 4.2 W | 272 8.3 0.00 0.00 34.4 72.5
3/5/21 - 1530 70.4 34 40.4 3.3 WSW | 247 7.0 0.00 0.00 34.4 72.5
3/5/21 - 1515 69.9 30 37.4 2.7 E | 98 6.6 0.00 0.00 34.4 72.5
3/5/21 - 1500 70.8 30 37.8 1.9 WNW | 283 9.0 0.00 0.00 34.4 72.5
3/5/21 - 1445 71.8 29 37.6 2.8 WNW | 282 7.0 0.00 0.00 34.4 72.5
3/5/21 - 1430 70.6 30 37.4 1.3 S | 184 3.9 0.00 0.00 34.4 71.4
3/5/21 - 1415 70.8 32 39.1 3.0 WSW | 258 7.0 0.00 0.00 34.4 71.4
3/5/21 - 1400 69.8 33 39.6 1.9 NNW | 341 5.0 0.00 0.00 34.4 70.6
3/5/21 - 1345 67.9 35 39.0 3.9 NW | 306 7.2 0.00 0.00 34.4 70.4
3/5/21 - 1330 68.2 36 40.2 2.8 N | 356 7.0 0.00 0.00 34.4 70.4
3/5/21 - 1315 67.4 37 40.0 1.5 N | 7 4.4 0.00 0.00 34.4 70.4
3/5/21 - 1300 66.7 38 40.1 2.4 SSW | 196 5.0 0.00 0.00 34.4 70.4
3/5/21 - 1245 67.9 39 42.0 3.0 N | 355 9.2 0.00 0.00 34.4 70.4
3/5/21 - 1230 66.7 40 41.4 1.4 NNW | 347 5.3 0.00 0.00 34.4 68.5
3/5/21 - 1215 64.9 42 41.2 3.1 NNW | 342 8.8 0.00 0.00 34.4 66.1
3/5/21 - 1200 64.0 44 41.4 3.0 ENE | 71 7.0 0.00 0.00 34.4 65.9
3/5/21 - 1145 63.2 47 42.8 4.2 N | 11 9.4 0.00 0.00 34.4 63.8
3/5/21 - 1130 62.6 48 42.5 3.7 NNW | 332 8.6 0.00 0.00 34.4 63.2
3/5/21 - 1115 61.1 51 42.7 4.3 NNW | 329 8.8 0.00 0.00 34.4 62.1
3/5/21 - 1100 60.2 53 42.9 4.2 NNW | 331 7.7 0.00 0.00 34.4 61.2
3/5/21 - 1045 59.5 55 43.1 4.2 NNW | 338 7.7 0.00 0.00 34.4 60.1
3/5/21 - 1030 58.5 55 42.6 4.4 NW | 319 8.6 0.00 0.00 34.4 59.1
3/5/21 - 1015 57.2 58 42.5 4.5 N | 353 9.0 0.00 0.00 34.4 58.1
3/5/21 - 1000 56.3 60 42.7 5.4 NNW | 339 9.2 0.00 0.00 34.4 57.2
3/5/21 - 0945 55.9 61 42.6 5.5 NNW | 330 8.8 0.00 0.00 34.4 56.2
3/5/21 - 0930 55.0 64 42.9 5.2 NNW | 329 8.3 0.00 0.00 34.4 55.9
3/5/21 - 0915 55.0 64 43.1 4.1 NW | 308 8.8 0.00 0.00 34.4 55.7
3/5/21 - 0900 53.2 67 42.4 4.0 NNW | 327 7.5 0.00 0.00 34.4 53.7
3/5/21 - 0845 52.2 73 44.0 3.0 WNW | 287 5.9 0.00 0.00 34.4 53.5
3/5/21 - 0830 49.6 86 45.6 2.2 W | 274 4.2 0.00 0.00 34.4 50.7
3/5/21 - 0815 47.3 94 45.8 1.9 SW | 236 3.7 0.00 0.00 34.4 48.5
Max 71.8 94 45.8 12.3 - 21.7 0.01 0.01 53.4 72.5
Avg 55.4 65 42.4 3.6 - 7.3 0.00 - - -
Min 43.4 29 37.4 0.0 - 0.0 0.00 0.00 34.4 48.5
Total - - - - - - 0.01 - - -

Last 7 Days

Modesto Jr College

Daily Data | America/Los_Angeles
as of 3/6/21 8:26 AM PST
Date Daily ETo (in)
3/5/21 0.104
3/4/21 0.104
3/3/21 0.074
3/2/21 0.103
3/1/21 0.134
2/28/21 0.105
2/27/21 0.160
Max 0.160
Min 0.074